sensor_id;sensor_type;location;lat;lon;timestamp;P1;durP1;ratioP1;P2;durP2;ratioP2
21432;SDS011;18592;49.708;10.900;2022-09-17T00:01:59;1.00;;;0.63;;
21432;SDS011;18592;49.708;10.900;2022-09-17T00:04:01;1.45;;;0.57;;
21432;SDS011;18592;49.708;10.900;2022-09-17T00:06:06;1.17;;;0.60;;
21432;SDS011;18592;49.708;10.900;2022-09-17T00:08:11;1.23;;;0.80;;
21432;SDS011;18592;49.708;10.900;2022-09-17T00:10:15;3.45;;;0.80;;
21432;SDS011;18592;49.708;10.900;2022-09-17T00:12:17;0.95;;;0.60;;
21432;SDS011;18592;49.708;10.900;2022-09-17T00:14:19;1.70;;;0.80;;
21432;SDS011;18592;49.708;10.900;2022-09-17T00:16:31;1.38;;;0.85;;
21432;SDS011;18592;49.708;10.900;2022-09-17T00:18:35;1.13;;;0.85;;
21432;SDS011;18592;49.708;10.900;2022-09-17T00:20:42;1.45;;;0.93;;
21432;SDS011;18592;49.708;10.900;2022-09-17T00:22:45;1.17;;;0.60;;
21432;SDS011;18592;49.708;10.900;2022-09-17T00:24:47;0.73;;;0.63;;
21432;SDS011;18592;49.708;10.900;2022-09-17T00:26:48;1.23;;;0.70;;
21432;SDS011;18592;49.708;10.900;2022-09-17T00:28:54;1.33;;;0.80;;
21432;SDS011;18592;49.708;10.900;2022-09-17T00:30:59;2.00;;;0.80;;
21432;SDS011;18592;49.708;10.900;2022-09-17T00:33:00;1.73;;;0.85;;
21432;SDS011;18592;49.708;10.900;2022-09-17T00:35:02;2.08;;;0.80;;
21432;SDS011;18592;49.708;10.900;2022-09-17T00:37:04;1.15;;;1.00;;
21432;SDS011;18592;49.708;10.900;2022-09-17T00:39:06;1.35;;;0.88;;
21432;SDS011;18592;49.708;10.900;2022-09-17T00:41:13;2.25;;;0.90;;
21432;SDS011;18592;49.708;10.900;2022-09-17T00:43:30;0.90;;;0.80;;
21432;SDS011;18592;49.708;10.900;2022-09-17T00:45:34;0.95;;;0.80;;
21432;SDS011;18592;49.708;10.900;2022-09-17T00:47:38;2.17;;;1.00;;
21432;SDS011;18592;49.708;10.900;2022-09-17T00:49:42;2.13;;;1.10;;
21432;SDS011;18592;49.708;10.900;2022-09-17T00:51:51;1.65;;;1.10;;
21432;SDS011;18592;49.708;10.900;2022-09-17T00:54:01;1.17;;;1.00;;
21432;SDS011;18592;49.708;10.900;2022-09-17T00:56:08;1.67;;;1.23;;
21432;SDS011;18592;49.708;10.900;2022-09-17T00:58:20;2.75;;;1.20;;
21432;SDS011;18592;49.708;10.900;2022-09-17T01:00:23;2.10;;;1.30;;
21432;SDS011;18592;49.708;10.900;2022-09-17T01:02:25;1.15;;;0.88;;
21432;SDS011;18592;49.708;10.900;2022-09-17T01:04:27;1.20;;;1.10;;
21432;SDS011;18592;49.708;10.900;2022-09-17T01:08:52;1.52;;;1.25;;
21432;SDS011;18592;49.708;10.900;2022-09-17T01:11:23;2.35;;;1.10;;
21432;SDS011;18592;49.708;10.900;2022-09-17T01:15:46;2.90;;;1.50;;
21432;SDS011;18592;49.708;10.900;2022-09-17T01:22:17;4.38;;;1.30;;
21432;SDS011;18592;49.708;10.900;2022-09-17T01:35:04;3.08;;;1.17;;
21432;SDS011;18592;49.708;10.900;2022-09-17T01:37:29;2.30;;;1.27;;
21432;SDS011;18592;49.708;10.900;2022-09-17T01:42:23;2.47;;;1.17;;
21432;SDS011;18592;49.708;10.900;2022-09-17T01:46:54;2.65;;;1.15;;
21432;SDS011;18592;49.708;10.900;2022-09-17T01:49:05;3.55;;;1.30;;
21432;SDS011;18592;49.708;10.900;2022-09-17T01:51:19;1.75;;;1.20;;
21432;SDS011;18592;49.708;10.900;2022-09-17T01:53:27;3.08;;;1.40;;
21432;SDS011;18592;49.708;10.900;2022-09-17T01:55:35;2.30;;;1.25;;
21432;SDS011;18592;49.708;10.900;2022-09-17T01:57:53;3.08;;;1.35;;
21432;SDS011;18592;49.708;10.900;2022-09-17T02:00:05;2.30;;;1.35;;
21432;SDS011;18592;49.708;10.900;2022-09-17T02:02:15;1.45;;;1.00;;
21432;SDS011;18592;49.708;10.900;2022-09-17T02:04:28;1.95;;;1.45;;
21432;SDS011;18592;49.708;10.900;2022-09-17T02:06:36;2.15;;;0.90;;
21432;SDS011;18592;49.708;10.900;2022-09-17T02:08:44;2.70;;;1.20;;
21432;SDS011;18592;49.708;10.900;2022-09-17T02:11:01;1.55;;;1.05;;
21432;SDS011;18592;49.708;10.900;2022-09-17T02:13:09;2.03;;;1.10;;
21432;SDS011;18592;49.708;10.900;2022-09-17T02:15:19;4.20;;;1.25;;
21432;SDS011;18592;49.708;10.900;2022-09-17T02:17:26;2.83;;;1.50;;
21432;SDS011;18592;49.708;10.900;2022-09-17T02:19:35;2.67;;;1.13;;
21432;SDS011;18592;49.708;10.900;2022-09-17T02:24:04;1.95;;;1.10;;
21432;SDS011;18592;49.708;10.900;2022-09-17T02:26:11;2.83;;;1.02;;
21432;SDS011;18592;49.708;10.900;2022-09-17T02:28:18;2.20;;;0.85;;
21432;SDS011;18592;49.708;10.900;2022-09-17T02:30:27;3.45;;;1.17;;
21432;SDS011;18592;49.708;10.900;2022-09-17T02:32:30;1.58;;;1.00;;
21432;SDS011;18592;49.708;10.900;2022-09-17T02:34:31;3.20;;;1.23;;
21432;SDS011;18592;49.708;10.900;2022-09-17T02:36:34;3.03;;;1.13;;
21432;SDS011;18592;49.708;10.900;2022-09-17T02:38:36;1.98;;;1.33;;
21432;SDS011;18592;49.708;10.900;2022-09-17T02:40:45;1.80;;;1.20;;
21432;SDS011;18592;49.708;10.900;2022-09-17T02:47:59;3.92;;;1.20;;
21432;SDS011;18592;49.708;10.900;2022-09-17T02:50:11;2.35;;;1.13;;
21432;SDS011;18592;49.708;10.900;2022-09-17T02:52:38;2.65;;;1.40;;
21432;SDS011;18592;49.708;10.900;2022-09-17T02:55:23;2.10;;;1.33;;
21432;SDS011;18592;49.708;10.900;2022-09-17T02:57:32;3.60;;;1.20;;
21432;SDS011;18592;49.708;10.900;2022-09-17T03:00:10;2.22;;;1.13;;
21432;SDS011;18592;49.708;10.900;2022-09-17T03:02:16;2.42;;;1.02;;
21432;SDS011;18592;49.708;10.900;2022-09-17T03:04:23;1.65;;;1.10;;
21432;SDS011;18592;49.708;10.900;2022-09-17T03:06:27;4.78;;;1.20;;
21432;SDS011;18592;49.708;10.900;2022-09-17T03:08:33;2.45;;;1.17;;
21432;SDS011;18592;49.708;10.900;2022-09-17T03:10:38;2.13;;;0.98;;
21432;SDS011;18592;49.708;10.900;2022-09-17T03:12:40;3.08;;;1.45;;
21432;SDS011;18592;49.708;10.900;2022-09-17T03:14:42;1.80;;;1.13;;
21432;SDS011;18592;49.708;10.900;2022-09-17T03:16:44;1.52;;;1.13;;
21432;SDS011;18592;49.708;10.900;2022-09-17T03:18:45;4.15;;;1.45;;
21432;SDS011;18592;49.708;10.900;2022-09-17T03:20:50;2.45;;;1.08;;
21432;SDS011;18592;49.708;10.900;2022-09-17T03:22:54;2.28;;;1.20;;
21432;SDS011;18592;49.708;10.900;2022-09-17T03:24:56;2.88;;;1.42;;
21432;SDS011;18592;49.708;10.900;2022-09-17T03:26:57;3.08;;;1.40;;
21432;SDS011;18592;49.708;10.900;2022-09-17T03:28:59;3.17;;;1.30;;
21432;SDS011;18592;49.708;10.900;2022-09-17T03:31:02;1.42;;;1.30;;
21432;SDS011;18592;49.708;10.900;2022-09-17T03:33:04;2.53;;;1.33;;
21432;SDS011;18592;49.708;10.900;2022-09-17T03:35:06;1.95;;;1.30;;
21432;SDS011;18592;49.708;10.900;2022-09-17T03:37:08;3.47;;;1.40;;
21432;SDS011;18592;49.708;10.900;2022-09-17T03:39:10;3.33;;;1.15;;
21432;SDS011;18592;49.708;10.900;2022-09-17T03:41:12;3.08;;;1.23;;
21432;SDS011;18592;49.708;10.900;2022-09-17T03:43:13;6.80;;;1.60;;
21432;SDS011;18592;49.708;10.900;2022-09-17T03:45:15;1.65;;;1.15;;
21432;SDS011;18592;49.708;10.900;2022-09-17T03:47:17;2.20;;;1.40;;
21432;SDS011;18592;49.708;10.900;2022-09-17T03:49:18;2.83;;;1.27;;
21432;SDS011;18592;49.708;10.900;2022-09-17T03:51:20;5.18;;;1.63;;
21432;SDS011;18592;49.708;10.900;2022-09-17T03:53:22;2.55;;;1.40;;
21432;SDS011;18592;49.708;10.900;2022-09-17T03:55:23;3.65;;;1.42;;
21432;SDS011;18592;49.708;10.900;2022-09-17T03:57:27;2.38;;;1.00;;
21432;SDS011;18592;49.708;10.900;2022-09-17T03:59:29;2.25;;;1.23;;
21432;SDS011;18592;49.708;10.900;2022-09-17T04:01:31;1.83;;;1.00;;
21432;SDS011;18592;49.708;10.900;2022-09-17T04:03:33;2.08;;;1.20;;
21432;SDS011;18592;49.708;10.900;2022-09-17T04:05:35;3.05;;;1.45;;
21432;SDS011;18592;49.708;10.900;2022-09-17T04:07:39;3.45;;;1.20;;
21432;SDS011;18592;49.708;10.900;2022-09-17T04:09:41;2.72;;;1.17;;
21432;SDS011;18592;49.708;10.900;2022-09-17T04:11:46;2.70;;;1.05;;
21432;SDS011;18592;49.708;10.900;2022-09-17T04:13:47;1.40;;;1.27;;
21432;SDS011;18592;49.708;10.900;2022-09-17T04:15:49;1.92;;;1.02;;
21432;SDS011;18592;49.708;10.900;2022-09-17T04:17:55;5.03;;;1.25;;
21432;SDS011;18592;49.708;10.900;2022-09-17T04:19:58;1.83;;;1.17;;
21432;SDS011;18592;49.708;10.900;2022-09-17T04:22:00;2.05;;;1.00;;
21432;SDS011;18592;49.708;10.900;2022-09-17T04:24:01;2.72;;;1.13;;
21432;SDS011;18592;49.708;10.900;2022-09-17T04:26:03;1.95;;;0.93;;
21432;SDS011;18592;49.708;10.900;2022-09-17T04:28:05;2.85;;;1.30;;
21432;SDS011;18592;49.708;10.900;2022-09-17T04:30:08;1.77;;;0.90;;
21432;SDS011;18592;49.708;10.900;2022-09-17T04:32:13;2.72;;;1.10;;
21432;SDS011;18592;49.708;10.900;2022-09-17T04:34:16;2.42;;;1.00;;
21432;SDS011;18592;49.708;10.900;2022-09-17T04:36:17;2.72;;;1.20;;
21432;SDS011;18592;49.708;10.900;2022-09-17T04:38:19;1.63;;;0.90;;
21432;SDS011;18592;49.708;10.900;2022-09-17T04:40:24;4.68;;;1.20;;
21432;SDS011;18592;49.708;10.900;2022-09-17T04:42:26;2.25;;;1.13;;
21432;SDS011;18592;49.708;10.900;2022-09-17T04:44:28;1.23;;;1.10;;
21432;SDS011;18592;49.708;10.900;2022-09-17T04:46:32;3.35;;;1.00;;
21432;SDS011;18592;49.708;10.900;2022-09-17T04:48:34;3.92;;;1.10;;
21432;SDS011;18592;49.708;10.900;2022-09-17T04:50:36;4.13;;;0.82;;
21432;SDS011;18592;49.708;10.900;2022-09-17T04:52:41;2.08;;;1.10;;
21432;SDS011;18592;49.708;10.900;2022-09-17T04:54:43;3.70;;;1.27;;
21432;SDS011;18592;49.708;10.900;2022-09-17T04:56:46;3.72;;;1.00;;
21432;SDS011;18592;49.708;10.900;2022-09-17T04:58:48;3.78;;;1.05;;
21432;SDS011;18592;49.708;10.900;2022-09-17T05:00:50;1.10;;;0.95;;
21432;SDS011;18592;49.708;10.900;2022-09-17T05:02:53;3.25;;;1.20;;
21432;SDS011;18592;49.708;10.900;2022-09-17T05:04:57;1.50;;;1.10;;
21432;SDS011;18592;49.708;10.900;2022-09-17T05:07:00;3.25;;;0.90;;
21432;SDS011;18592;49.708;10.900;2022-09-17T05:09:01;2.00;;;1.20;;
21432;SDS011;18592;49.708;10.900;2022-09-17T05:11:03;2.03;;;0.85;;
21432;SDS011;18592;49.708;10.900;2022-09-17T05:13:05;1.52;;;0.80;;
21432;SDS011;18592;49.708;10.900;2022-09-17T05:15:07;1.80;;;0.73;;
21432;SDS011;18592;49.708;10.900;2022-09-17T05:17:09;1.52;;;0.85;;
21432;SDS011;18592;49.708;10.900;2022-09-17T05:19:15;1.83;;;0.80;;
21432;SDS011;18592;49.708;10.900;2022-09-17T05:21:23;2.15;;;0.77;;
21432;SDS011;18592;49.708;10.900;2022-09-17T05:23:24;3.05;;;1.20;;
21432;SDS011;18592;49.708;10.900;2022-09-17T05:25:26;1.80;;;0.82;;
21432;SDS011;18592;49.708;10.900;2022-09-17T05:27:28;2.03;;;1.00;;
21432;SDS011;18592;49.708;10.900;2022-09-17T05:29:32;2.65;;;0.88;;
21432;SDS011;18592;49.708;10.900;2022-09-17T05:31:34;2.13;;;0.80;;
21432;SDS011;18592;49.708;10.900;2022-09-17T05:33:36;1.95;;;0.88;;
21432;SDS011;18592;49.708;10.900;2022-09-17T05:35:38;2.25;;;0.75;;
21432;SDS011;18592;49.708;10.900;2022-09-17T05:37:44;2.30;;;0.70;;
21432;SDS011;18592;49.708;10.900;2022-09-17T05:39:46;1.63;;;0.50;;
21432;SDS011;18592;49.708;10.900;2022-09-17T05:41:48;1.77;;;0.70;;
21432;SDS011;18592;49.708;10.900;2022-09-17T05:43:50;2.40;;;0.75;;
21432;SDS011;18592;49.708;10.900;2022-09-17T05:45:51;1.45;;;0.63;;
21432;SDS011;18592;49.708;10.900;2022-09-17T05:47:56;2.03;;;0.50;;
21432;SDS011;18592;49.708;10.900;2022-09-17T05:49:58;0.95;;;0.52;;
21432;SDS011;18592;49.708;10.900;2022-09-17T05:52:04;1.10;;;0.70;;
21432;SDS011;18592;49.708;10.900;2022-09-17T05:54:06;1.33;;;0.70;;
21432;SDS011;18592;49.708;10.900;2022-09-17T05:56:07;0.70;;;0.68;;
21432;SDS011;18592;49.708;10.900;2022-09-17T05:58:13;1.13;;;0.60;;
21432;SDS011;18592;49.708;10.900;2022-09-17T06:00:19;0.77;;;0.50;;
21432;SDS011;18592;49.708;10.900;2022-09-17T06:02:20;1.38;;;0.57;;
21432;SDS011;18592;49.708;10.900;2022-09-17T06:04:31;1.02;;;0.43;;
21432;SDS011;18592;49.708;10.900;2022-09-17T06:06:35;1.48;;;0.65;;
21432;SDS011;18592;49.708;10.900;2022-09-17T06:08:39;0.88;;;0.52;;
21432;SDS011;18592;49.708;10.900;2022-09-17T06:10:44;3.60;;;0.90;;
21432;SDS011;18592;49.708;10.900;2022-09-17T06:12:46;3.65;;;0.90;;
21432;SDS011;18592;49.708;10.900;2022-09-17T06:14:48;2.17;;;0.60;;
21432;SDS011;18592;49.708;10.900;2022-09-17T06:16:49;1.25;;;0.70;;
21432;SDS011;18592;49.708;10.900;2022-09-17T06:18:51;2.38;;;0.85;;
21432;SDS011;18592;49.708;10.900;2022-09-17T06:20:58;1.88;;;0.70;;
21432;SDS011;18592;49.708;10.900;2022-09-17T06:23:01;1.17;;;0.52;;
21432;SDS011;18592;49.708;10.900;2022-09-17T06:25:02;1.77;;;0.90;;
21432;SDS011;18592;49.708;10.900;2022-09-17T06:27:04;1.30;;;0.60;;
21432;SDS011;18592;49.708;10.900;2022-09-17T06:29:06;1.10;;;0.50;;
21432;SDS011;18592;49.708;10.900;2022-09-17T06:31:08;2.08;;;0.60;;
21432;SDS011;18592;49.708;10.900;2022-09-17T06:33:11;1.90;;;0.73;;
21432;SDS011;18592;49.708;10.900;2022-09-17T06:35:13;1.30;;;0.60;;
21432;SDS011;18592;49.708;10.900;2022-09-17T06:37:14;1.35;;;0.45;;
21432;SDS011;18592;49.708;10.900;2022-09-17T06:39:16;2.30;;;0.88;;
21432;SDS011;18592;49.708;10.900;2022-09-17T06:41:18;2.67;;;0.70;;
21432;SDS011;18592;49.708;10.900;2022-09-17T06:43:20;2.83;;;0.65;;
21432;SDS011;18592;49.708;10.900;2022-09-17T06:45:27;1.02;;;0.63;;
21432;SDS011;18592;49.708;10.900;2022-09-17T06:47:32;1.02;;;0.52;;
21432;SDS011;18592;49.708;10.900;2022-09-17T06:49:34;1.27;;;0.80;;
21432;SDS011;18592;49.708;10.900;2022-09-17T06:51:39;1.00;;;0.63;;
21432;SDS011;18592;49.708;10.900;2022-09-17T06:53:40;0.75;;;0.60;;
21432;SDS011;18592;49.708;10.900;2022-09-17T06:55:42;0.50;;;0.50;;
21432;SDS011;18592;49.708;10.900;2022-09-17T06:57:44;0.60;;;0.50;;
21432;SDS011;18592;49.708;10.900;2022-09-17T06:59:48;2.85;;;0.60;;
21432;SDS011;18592;49.708;10.900;2022-09-17T07:01:51;1.30;;;0.70;;
21432;SDS011;18592;49.708;10.900;2022-09-17T07:03:55;1.35;;;0.50;;
21432;SDS011;18592;49.708;10.900;2022-09-17T07:05:57;3.00;;;0.80;;
21432;SDS011;18592;49.708;10.900;2022-09-17T07:08:00;1.20;;;0.60;;
21432;SDS011;18592;49.708;10.900;2022-09-17T07:10:05;1.70;;;0.93;;
21432;SDS011;18592;49.708;10.900;2022-09-17T07:12:08;1.73;;;0.80;;
21432;SDS011;18592;49.708;10.900;2022-09-17T07:14:09;1.48;;;0.80;;
21432;SDS011;18592;49.708;10.900;2022-09-17T07:16:11;2.80;;;0.80;;
21432;SDS011;18592;49.708;10.900;2022-09-17T07:18:13;1.40;;;0.82;;
21432;SDS011;18592;49.708;10.900;2022-09-17T07:20:17;2.58;;;0.85;;
21432;SDS011;18592;49.708;10.900;2022-09-17T07:22:19;2.88;;;1.05;;
21432;SDS011;18592;49.708;10.900;2022-09-17T07:24:20;1.80;;;1.00;;
21432;SDS011;18592;49.708;10.900;2022-09-17T07:26:22;1.92;;;1.00;;
21432;SDS011;18592;49.708;10.900;2022-09-17T07:28:24;1.52;;;0.80;;
21432;SDS011;18592;49.708;10.900;2022-09-17T07:30:27;2.45;;;0.90;;
21432;SDS011;18592;49.708;10.900;2022-09-17T07:32:29;2.55;;;1.05;;
21432;SDS011;18592;49.708;10.900;2022-09-17T07:34:31;2.58;;;1.00;;
21432;SDS011;18592;49.708;10.900;2022-09-17T07:36:33;2.83;;;1.20;;
21432;SDS011;18592;49.708;10.900;2022-09-17T07:38:35;2.00;;;1.00;;
21432;SDS011;18592;49.708;10.900;2022-09-17T07:40:37;3.10;;;1.20;;
21432;SDS011;18592;49.708;10.900;2022-09-17T07:42:39;2.63;;;1.13;;
21432;SDS011;18592;49.708;10.900;2022-09-17T07:44:41;2.78;;;1.25;;
21432;SDS011;18592;49.708;10.900;2022-09-17T07:46:42;3.20;;;1.23;;
21432;SDS011;18592;49.708;10.900;2022-09-17T07:48:44;2.50;;;1.20;;
21432;SDS011;18592;49.708;10.900;2022-09-17T07:50:47;3.17;;;1.10;;
21432;SDS011;18592;49.708;10.900;2022-09-17T07:52:48;3.25;;;1.20;;
21432;SDS011;18592;49.708;10.900;2022-09-17T07:54:51;1.27;;;1.10;;
21432;SDS011;18592;49.708;10.900;2022-09-17T07:56:53;2.80;;;1.30;;
21432;SDS011;18592;49.708;10.900;2022-09-17T07:58:54;1.90;;;1.25;;
21432;SDS011;18592;49.708;10.900;2022-09-17T08:01:06;3.85;;;1.35;;
21432;SDS011;18592;49.708;10.900;2022-09-17T08:03:10;3.90;;;1.33;;
21432;SDS011;18592;49.708;10.900;2022-09-17T08:05:11;3.28;;;1.33;;
21432;SDS011;18592;49.708;10.900;2022-09-17T08:07:14;3.70;;;1.40;;
21432;SDS011;18592;49.708;10.900;2022-09-17T08:09:17;2.75;;;1.20;;
21432;SDS011;18592;49.708;10.900;2022-09-17T08:11:22;2.17;;;1.10;;
21432;SDS011;18592;49.708;10.900;2022-09-17T08:13:48;2.47;;;1.10;;
21432;SDS011;18592;49.708;10.900;2022-09-17T08:15:51;4.50;;;1.60;;
21432;SDS011;18592;49.708;10.900;2022-09-17T08:17:53;5.55;;;2.08;;
21432;SDS011;18592;49.708;10.900;2022-09-17T08:19:55;3.60;;;1.50;;
21432;SDS011;18592;49.708;10.900;2022-09-17T08:21:57;3.55;;;1.55;;
21432;SDS011;18592;49.708;10.900;2022-09-17T08:24:01;3.50;;;1.40;;
21432;SDS011;18592;49.708;10.900;2022-09-17T08:26:03;2.78;;;1.35;;
21432;SDS011;18592;49.708;10.900;2022-09-17T08:28:07;4.05;;;1.52;;
21432;SDS011;18592;49.708;10.900;2022-09-17T08:30:09;2.30;;;1.27;;
21432;SDS011;18592;49.708;10.900;2022-09-17T08:32:11;3.58;;;1.50;;
21432;SDS011;18592;49.708;10.900;2022-09-17T08:34:12;4.10;;;1.48;;
21432;SDS011;18592;49.708;10.900;2022-09-17T08:36:15;4.85;;;1.80;;
21432;SDS011;18592;49.708;10.900;2022-09-17T08:38:18;4.30;;;1.63;;
21432;SDS011;18592;49.708;10.900;2022-09-17T08:40:21;4.47;;;1.65;;
21432;SDS011;18592;49.708;10.900;2022-09-17T08:42:29;3.85;;;1.48;;
21432;SDS011;18592;49.708;10.900;2022-09-17T08:44:38;3.45;;;1.30;;
21432;SDS011;18592;49.708;10.900;2022-09-17T08:46:46;2.72;;;1.50;;
21432;SDS011;18592;49.708;10.900;2022-09-17T08:49:03;5.60;;;1.60;;
21432;SDS011;18592;49.708;10.900;2022-09-17T08:51:42;4.20;;;1.40;;
21432;SDS011;18592;49.708;10.900;2022-09-17T08:53:59;3.58;;;1.55;;
21432;SDS011;18592;49.708;10.900;2022-09-17T08:56:19;4.30;;;1.45;;
21432;SDS011;18592;49.708;10.900;2022-09-17T09:05:17;2.80;;;1.50;;
21432;SDS011;18592;49.708;10.900;2022-09-17T09:07:26;3.20;;;1.75;;
21432;SDS011;18592;49.708;10.900;2022-09-17T09:09:36;3.85;;;1.77;;
21432;SDS011;18592;49.708;10.900;2022-09-17T09:11:44;6.35;;;1.70;;
21432;SDS011;18592;49.708;10.900;2022-09-17T09:13:49;3.83;;;1.40;;
21432;SDS011;18592;49.708;10.900;2022-09-17T09:15:58;4.40;;;1.70;;
21432;SDS011;18592;49.708;10.900;2022-09-17T09:18:14;3.60;;;1.50;;
21432;SDS011;18592;49.708;10.900;2022-09-17T09:20:42;4.25;;;1.40;;
21432;SDS011;18592;49.708;10.900;2022-09-17T09:22:49;4.68;;;1.65;;
21432;SDS011;18592;49.708;10.900;2022-09-17T09:25:02;4.82;;;1.60;;
21432;SDS011;18592;49.708;10.900;2022-09-17T09:27:15;3.80;;;1.70;;
21432;SDS011;18592;49.708;10.900;2022-09-17T09:31:53;3.33;;;1.40;;
21432;SDS011;18592;49.708;10.900;2022-09-17T09:34:17;4.88;;;1.52;;
21432;SDS011;18592;49.708;10.900;2022-09-17T09:36:20;6.75;;;1.75;;
21432;SDS011;18592;49.708;10.900;2022-09-17T09:38:36;5.07;;;2.00;;
21432;SDS011;18592;49.708;10.900;2022-09-17T09:42:52;3.65;;;1.50;;
21432;SDS011;18592;49.708;10.900;2022-09-17T09:44:57;3.88;;;1.60;;
21432;SDS011;18592;49.708;10.900;2022-09-17T09:56:37;6.03;;;1.88;;
21432;SDS011;18592;49.708;10.900;2022-09-17T09:58:51;3.97;;;1.52;;
21432;SDS011;18592;49.708;10.900;2022-09-17T10:00:52;3.92;;;1.67;;
21432;SDS011;18592;49.708;10.900;2022-09-17T10:03:11;4.50;;;1.73;;
21432;SDS011;18592;49.708;10.900;2022-09-17T10:05:26;5.18;;;1.70;;
21432;SDS011;18592;49.708;10.900;2022-09-17T10:07:28;5.47;;;1.73;;
21432;SDS011;18592;49.708;10.900;2022-09-17T10:09:31;3.85;;;1.70;;
21432;SDS011;18592;49.708;10.900;2022-09-17T10:11:57;4.38;;;1.98;;
21432;SDS011;18592;49.708;10.900;2022-09-17T10:16:24;3.85;;;1.60;;
21432;SDS011;18592;49.708;10.900;2022-09-17T10:18:28;5.97;;;1.90;;
21432;SDS011;18592;49.708;10.900;2022-09-17T10:20:29;5.80;;;1.73;;
21432;SDS011;18592;49.708;10.900;2022-09-17T10:22:31;5.88;;;2.13;;
21432;SDS011;18592;49.708;10.900;2022-09-17T10:24:37;4.75;;;1.42;;
21432;SDS011;18592;49.708;10.900;2022-09-17T10:26:39;4.20;;;1.70;;
21432;SDS011;18592;49.708;10.900;2022-09-17T10:28:50;4.40;;;1.98;;
21432;SDS011;18592;49.708;10.900;2022-09-17T10:31:01;3.88;;;1.80;;
21432;SDS011;18592;49.708;10.900;2022-09-17T10:33:20;4.85;;;2.10;;
21432;SDS011;18592;49.708;10.900;2022-09-17T10:35:25;4.68;;;1.70;;
21432;SDS011;18592;49.708;10.900;2022-09-17T10:37:40;6.07;;;1.70;;
21432;SDS011;18592;49.708;10.900;2022-09-17T10:39:47;4.07;;;1.67;;
21432;SDS011;18592;49.708;10.900;2022-09-17T10:41:53;3.42;;;2.00;;
21432;SDS011;18592;49.708;10.900;2022-09-17T10:44:01;3.55;;;1.80;;
21432;SDS011;18592;49.708;10.900;2022-09-17T10:46:19;4.53;;;1.70;;
21432;SDS011;18592;49.708;10.900;2022-09-17T10:48:30;5.53;;;1.80;;
21432;SDS011;18592;49.708;10.900;2022-09-17T10:50:38;4.25;;;1.60;;
21432;SDS011;18592;49.708;10.900;2022-09-17T10:52:45;4.10;;;1.50;;
21432;SDS011;18592;49.708;10.900;2022-09-17T10:54:55;4.05;;;1.80;;
21432;SDS011;18592;49.708;10.900;2022-09-17T10:57:06;4.03;;;1.50;;
21432;SDS011;18592;49.708;10.900;2022-09-17T10:59:36;2.25;;;1.30;;
21432;SDS011;18592;49.708;10.900;2022-09-17T11:04:33;7.03;;;1.98;;
21432;SDS011;18592;49.708;10.900;2022-09-17T11:07:22;4.55;;;2.03;;
21432;SDS011;18592;49.708;10.900;2022-09-17T11:09:43;3.58;;;1.85;;
21432;SDS011;18592;49.708;10.900;2022-09-17T11:16:41;2.47;;;1.33;;
21432;SDS011;18592;49.708;10.900;2022-09-17T11:19:05;3.78;;;1.50;;
21432;SDS011;18592;49.708;10.900;2022-09-17T11:28:05;2.97;;;1.30;;
21432;SDS011;18592;49.708;10.900;2022-09-17T11:30:23;4.93;;;1.85;;
21432;SDS011;18592;49.708;10.900;2022-09-17T11:34:56;2.85;;;1.67;;
21432;SDS011;18592;49.708;10.900;2022-09-17T11:37:05;3.65;;;1.52;;
21432;SDS011;18592;49.708;10.900;2022-09-17T11:39:17;3.78;;;1.60;;
21432;SDS011;18592;49.708;10.900;2022-09-17T11:41:32;3.97;;;1.63;;
21432;SDS011;18592;49.708;10.900;2022-09-17T11:44:03;5.95;;;1.73;;
21432;SDS011;18592;49.708;10.900;2022-09-17T11:46:24;4.38;;;1.45;;
21432;SDS011;18592;49.708;10.900;2022-09-17T11:48:38;3.53;;;1.45;;
21432;SDS011;18592;49.708;10.900;2022-09-17T11:51:06;3.05;;;1.25;;
21432;SDS011;18592;49.708;10.900;2022-09-17T11:53:30;3.28;;;1.30;;
21432;SDS011;18592;49.708;10.900;2022-09-17T11:55:57;2.05;;;1.30;;
21432;SDS011;18592;49.708;10.900;2022-09-17T11:58:08;2.00;;;1.15;;
21432;SDS011;18592;49.708;10.900;2022-09-17T12:00:31;2.15;;;1.23;;
21432;SDS011;18592;49.708;10.900;2022-09-17T12:05:02;2.15;;;1.25;;
21432;SDS011;18592;49.708;10.900;2022-09-17T12:09:36;2.60;;;1.35;;
21432;SDS011;18592;49.708;10.900;2022-09-17T12:11:45;2.42;;;1.30;;
21432;SDS011;18592;49.708;10.900;2022-09-17T12:13:57;2.15;;;1.20;;
21432;SDS011;18592;49.708;10.900;2022-09-17T12:20:39;2.30;;;1.20;;
21432;SDS011;18592;49.708;10.900;2022-09-17T12:22:45;2.20;;;1.33;;
21432;SDS011;18592;49.708;10.900;2022-09-17T12:24:51;5.25;;;1.52;;
21432;SDS011;18592;49.708;10.900;2022-09-17T12:26:56;3.00;;;1.27;;
21432;SDS011;18592;49.708;10.900;2022-09-17T12:29:14;2.40;;;1.30;;
21432;SDS011;18592;49.708;10.900;2022-09-17T12:31:31;3.08;;;1.20;;
21432;SDS011;18592;49.708;10.900;2022-09-17T12:34:15;2.92;;;1.20;;
21432;SDS011;18592;49.708;10.900;2022-09-17T12:36:28;3.53;;;1.50;;
21432;SDS011;18592;49.708;10.900;2022-09-17T12:41:40;1.85;;;1.25;;
21432;SDS011;18592;49.708;10.900;2022-09-17T12:44:12;2.58;;;1.38;;
21432;SDS011;18592;49.708;10.900;2022-09-17T12:49:15;4.38;;;1.45;;
21432;SDS011;18592;49.708;10.900;2022-09-17T12:51:45;1.45;;;1.02;;
21432;SDS011;18592;49.708;10.900;2022-09-17T12:53:56;3.78;;;1.58;;
21432;SDS011;18592;49.708;10.900;2022-09-17T12:56:48;3.35;;;1.40;;
21432;SDS011;18592;49.708;10.900;2022-09-17T13:16:34;1.35;;;0.77;;
21432;SDS011;18592;49.708;10.900;2022-09-17T13:18:50;1.58;;;0.57;;
21432;SDS011;18592;49.708;10.900;2022-09-17T13:21:27;1.85;;;0.85;;
21432;SDS011;18592;49.708;10.900;2022-09-17T13:23:37;2.22;;;0.70;;
21432;SDS011;18592;49.708;10.900;2022-09-17T13:25:48;2.03;;;0.70;;
21432;SDS011;18592;49.708;10.900;2022-09-17T13:28:06;0.82;;;0.80;;
21432;SDS011;18592;49.708;10.900;2022-09-17T13:30:10;1.77;;;0.82;;
21432;SDS011;18592;49.708;10.900;2022-09-17T13:34:33;1.02;;;0.80;;
21432;SDS011;18592;49.708;10.900;2022-09-17T13:36:53;1.45;;;0.90;;
21432;SDS011;18592;49.708;10.900;2022-09-17T13:38:56;2.30;;;0.90;;
21432;SDS011;18592;49.708;10.900;2022-09-17T13:41:17;2.78;;;1.00;;
21432;SDS011;18592;49.708;10.900;2022-09-17T13:43:21;1.95;;;0.90;;
21432;SDS011;18592;49.708;10.900;2022-09-17T13:45:27;1.95;;;1.00;;
21432;SDS011;18592;49.708;10.900;2022-09-17T13:47:33;1.77;;;0.90;;
21432;SDS011;18592;49.708;10.900;2022-09-17T13:49:42;2.63;;;1.05;;
21432;SDS011;18592;49.708;10.900;2022-09-17T13:51:46;2.30;;;0.98;;
21432;SDS011;18592;49.708;10.900;2022-09-17T13:53:51;1.27;;;0.98;;
21432;SDS011;18592;49.708;10.900;2022-09-17T13:55:58;1.33;;;0.90;;
21432;SDS011;18592;49.708;10.900;2022-09-17T14:00:46;2.28;;;1.10;;
21432;SDS011;18592;49.708;10.900;2022-09-17T14:03:04;2.33;;;1.02;;
21432;SDS011;18592;49.708;10.900;2022-09-17T14:05:48;1.25;;;0.80;;
21432;SDS011;18592;49.708;10.900;2022-09-17T14:07:50;3.42;;;1.27;;
21432;SDS011;18592;49.708;10.900;2022-09-17T14:11:54;2.28;;;1.00;;
21432;SDS011;18592;49.708;10.900;2022-09-17T14:16:54;2.30;;;1.25;;
21432;SDS011;18592;49.708;10.900;2022-09-17T14:18:42;1.80;;;0.90;;
21432;SDS011;18592;49.708;10.900;2022-09-17T14:20:48;2.42;;;0.90;;
21432;SDS011;18592;49.708;10.900;2022-09-17T14:22:53;2.00;;;1.10;;
21432;SDS011;18592;49.708;10.900;2022-09-17T14:24:56;2.63;;;1.15;;
21432;SDS011;18592;49.708;10.900;2022-09-17T14:31:43;1.55;;;0.80;;
21432;SDS011;18592;49.708;10.900;2022-09-17T14:33:47;1.35;;;1.00;;
21432;SDS011;18592;49.708;10.900;2022-09-17T14:35:49;2.20;;;1.00;;